createdAt,value
2019-02-23T00:00:52.147Z,-2.2
2019-02-23T00:01:52.205Z,-2.3
2019-02-23T00:02:52.261Z,-2.3
2019-02-23T00:03:52.288Z,-2.3
2019-02-23T00:04:52.321Z,-2.3
2019-02-23T00:05:52.404Z,-2.3
2019-02-23T00:06:52.435Z,-2.3
2019-02-23T00:07:52.483Z,-2.3
2019-02-23T00:08:52.534Z,-2.3
2019-02-23T00:09:52.602Z,-2.3
2019-02-23T00:10:52.640Z,-2.3
2019-02-23T00:11:52.721Z,-2.3
2019-02-23T00:12:52.704Z,-2.4
2019-02-23T00:13:53.210Z,-2.4
2019-02-23T00:14:52.756Z,-2.4
2019-02-23T00:15:52.799Z,-2.4
2019-02-23T00:16:52.841Z,-2.4
2019-02-23T00:17:52.875Z,-2.5
2019-02-23T00:18:52.898Z,-2.5
2019-02-23T00:19:52.941Z,-2.5
2019-02-23T00:20:52.965Z,-2.5
2019-02-23T00:21:53.010Z,-2.5
2019-02-23T00:22:53.042Z,-2.5
2019-02-23T00:23:53.113Z,-2.5
2019-02-23T00:24:53.151Z,-2.6
2019-02-23T00:25:54.176Z,-2.6
2019-02-23T00:26:53.248Z,-2.6
2019-02-23T00:27:53.209Z,-2.6
2019-02-23T00:28:53.325Z,-2.6
2019-02-23T00:29:53.273Z,-2.6
2019-02-23T00:30:53.325Z,-2.6
2019-02-23T00:31:53.345Z,-2.6
2019-02-23T00:32:53.385Z,-2.6
2019-02-23T00:33:53.406Z,-2.6
2019-02-23T00:34:53.452Z,-2.6
2019-02-23T00:35:53.488Z,-2.6
2019-02-23T00:36:53.523Z,-2.6
2019-02-23T00:37:53.563Z,-2.6
2019-02-23T00:38:53.565Z,-2.6
2019-02-23T00:39:53.592Z,-2.6
2019-02-23T00:40:53.646Z,-2.6
2019-02-23T00:41:53.643Z,-2.6
2019-02-23T00:42:53.652Z,-2.6
2019-02-23T00:43:53.695Z,-2.6
2019-02-23T00:44:53.702Z,-2.6
2019-02-23T00:45:53.751Z,-2.6
2019-02-23T00:46:53.760Z,-2.6
2019-02-23T00:47:53.824Z,-2.7
2019-02-23T00:48:53.851Z,-2.7
2019-02-23T00:49:53.882Z,-2.7
2019-02-23T00:50:53.891Z,-2.7
2019-02-23T00:51:53.915Z,-2.7
2019-02-23T00:52:53.932Z,-2.7
2019-02-23T00:53:53.938Z,-2.7
2019-02-23T00:54:53.961Z,-2.7
2019-02-23T00:55:53.974Z,-2.8
2019-02-23T00:56:54.000Z,-2.8
2019-02-23T00:57:54.056Z,-2.8
2019-02-23T00:58:54.041Z,-2.8
2019-02-23T00:59:54.062Z,-2.8
2019-02-23T01:00:54.069Z,-2.8
2019-02-23T01:01:54.105Z,-2.8
2019-02-23T01:02:54.134Z,-2.8
2019-02-23T01:03:54.109Z,-2.8
2019-02-23T01:04:54.110Z,-2.8
2019-02-23T01:05:54.140Z,-2.8
2019-02-23T01:06:54.149Z,-2.8
2019-02-23T01:07:54.162Z,-2.8
2019-02-23T01:08:54.163Z,-2.8
2019-02-23T01:09:54.167Z,-2.8
2019-02-23T01:10:57.910Z,-2.8
2019-02-23T01:11:54.189Z,-2.8
2019-02-23T01:12:54.185Z,-2.8
2019-02-23T01:13:54.177Z,-2.8
2019-02-23T01:14:54.228Z,-2.7
2019-02-23T01:15:54.310Z,-2.7
2019-02-23T01:16:54.363Z,-2.7
2019-02-23T01:17:54.473Z,-2.7
2019-02-23T01:18:54.452Z,-2.7
2019-02-23T01:19:54.470Z,-2.7
2019-02-23T01:20:54.555Z,-2.6
2019-02-23T01:21:54.634Z,-2.7
2019-02-23T01:22:54.746Z,-2.7
2019-02-23T01:23:54.687Z,-2.7
2019-02-23T01:24:54.791Z,-2.7
2019-02-23T01:25:54.786Z,-2.6
2019-02-23T01:26:54.881Z,-2.7
2019-02-23T01:27:54.938Z,-2.7
2019-02-23T01:28:54.940Z,-2.7
2019-02-23T01:29:54.998Z,-2.7
2019-02-23T01:30:55.054Z,-2.8
2019-02-23T01:31:55.128Z,-2.8
2019-02-23T01:32:55.203Z,-2.8
2019-02-23T01:33:55.261Z,-2.9
2019-02-23T01:34:55.293Z,-2.9
2019-02-23T01:35:55.380Z,-2.9
2019-02-23T01:36:55.451Z,-2.9
2019-02-23T01:37:55.493Z,-3
2019-02-23T01:38:55.514Z,-3
2019-02-23T01:39:55.593Z,-3
2019-02-23T01:40:55.581Z,-3
2019-02-23T01:41:55.606Z,-3
2019-02-23T01:42:55.630Z,-3
2019-02-23T01:43:55.684Z,-3
2019-02-23T01:44:55.704Z,-3
2019-02-23T01:45:55.745Z,-3
2019-02-23T01:46:55.795Z,-3
2019-02-23T01:47:55.856Z,-3
2019-02-23T01:48:55.852Z,-3
2019-02-23T01:49:58.708Z,-3
2019-02-23T01:50:55.969Z,-3
2019-02-23T01:51:56.005Z,-3
2019-02-23T01:52:56.077Z,-3
2019-02-23T01:53:56.069Z,-3
2019-02-23T01:54:56.131Z,-3
2019-02-23T01:55:56.233Z,-3
2019-02-23T01:56:56.224Z,-3
2019-02-23T01:57:56.258Z,-3
2019-02-23T01:58:56.251Z,-3
2019-02-23T01:59:56.330Z,-3
2019-02-23T02:00:56.381Z,-3
2019-02-23T02:01:56.339Z,-3
2019-02-23T02:02:56.412Z,-3
2019-02-23T02:03:56.455Z,-3
2019-02-23T02:04:56.551Z,-3
2019-02-23T02:05:56.552Z,-3
2019-02-23T02:06:56.657Z,-3
2019-02-23T02:07:56.619Z,-3
2019-02-23T02:08:56.714Z,-3
2019-02-23T02:09:56.703Z,-3
2019-02-23T02:10:56.808Z,-3
2019-02-23T02:11:56.781Z,-3
2019-02-23T02:12:56.813Z,-3.1
2019-02-23T02:13:56.824Z,-3.1
2019-02-23T02:14:56.876Z,-3.1
2019-02-23T02:15:56.850Z,-3.1
2019-02-23T02:16:56.892Z,-3.1
2019-02-23T02:17:56.948Z,-3.1
2019-02-23T02:18:56.953Z,-3.1
2019-02-23T02:19:56.995Z,-3.1
2019-02-23T02:20:57.029Z,-3.1
2019-02-23T02:21:57.064Z,-3.1
2019-02-23T02:22:57.062Z,-3.1
2019-02-23T02:23:57.090Z,-3.1
2019-02-23T02:24:57.106Z,-3
2019-02-23T02:25:57.163Z,-3
2019-02-23T02:26:57.188Z,-3
2019-02-23T02:27:57.182Z,-3
2019-02-23T02:28:57.315Z,-3
2019-02-23T02:29:57.255Z,-3
2019-02-23T02:30:57.286Z,-3
2019-02-23T02:31:57.331Z,-3
2019-02-23T02:32:57.331Z,-2.9
2019-02-23T02:33:57.389Z,-2.9
2019-02-23T02:34:57.406Z,-2.9
2019-02-23T02:35:57.404Z,-2.9
2019-02-23T02:36:57.401Z,-2.9
2019-02-23T02:37:57.423Z,-2.9
2019-02-23T02:38:57.469Z,-2.9
2019-02-23T02:39:57.463Z,-2.8
2019-02-23T02:40:57.470Z,-2.8
2019-02-23T02:41:57.513Z,-2.8
2019-02-23T02:42:57.495Z,-2.8
2019-02-23T02:43:57.530Z,-2.8
2019-02-23T02:44:57.553Z,-2.7
2019-02-23T02:45:57.536Z,-2.7
2019-02-23T02:46:57.598Z,-2.7
2019-02-23T02:47:57.582Z,-2.7
2019-02-23T02:49:13.298Z,-2.6
2019-02-23T02:49:57.580Z,-2.6
2019-02-23T02:50:57.628Z,-2.6
2019-02-23T02:51:57.630Z,-2.6
2019-02-23T02:52:57.639Z,-2.6
2019-02-23T02:53:57.636Z,-2.6
2019-02-23T02:54:57.644Z,-2.6
2019-02-23T02:55:57.626Z,-2.5
2019-02-23T02:56:57.653Z,-2.5
2019-02-23T02:57:57.678Z,-2.5
2019-02-23T02:58:57.678Z,-2.5
2019-02-23T02:59:57.633Z,-2.5
2019-02-23T03:00:57.718Z,-2.5
2019-02-23T03:01:58.866Z,-2.5
2019-02-23T03:02:57.878Z,-2.5
2019-02-23T03:03:57.883Z,-2.5
2019-02-23T03:04:58.013Z,-2.5
2019-02-23T03:05:57.988Z,-2.5
2019-02-23T03:06:58.009Z,-2.5
2019-02-23T03:07:58.080Z,-2.5
2019-02-23T03:08:58.137Z,-2.5
2019-02-23T03:09:58.190Z,-2.5
2019-02-23T03:10:58.269Z,-2.5
2019-02-23T03:11:58.291Z,-2.5
2019-02-23T03:12:58.426Z,-2.5
2019-02-23T03:13:58.439Z,-2.5
2019-02-23T03:14:58.484Z,-2.5
2019-02-23T03:15:58.558Z,-2.5
2019-02-23T03:16:58.614Z,-2.5
2019-02-23T03:17:58.689Z,-2.5
2019-02-23T03:18:58.739Z,-2.5
2019-02-23T03:19:58.797Z,-2.5
2019-02-23T03:20:58.848Z,-2.5
2019-02-23T03:21:58.899Z,-2.5
2019-02-23T03:22:58.980Z,-2.4
2019-02-23T03:23:59.014Z,-2.4
2019-02-23T03:24:59.085Z,-2.4
2019-02-23T03:25:59.123Z,-2.4
2019-02-23T03:26:59.740Z,-2.4
2019-02-23T03:27:59.247Z,-2.4
2019-02-23T03:28:59.309Z,-2.4
2019-02-23T03:29:59.362Z,-2.3
2019-02-23T03:30:59.409Z,-2.3
2019-02-23T03:31:59.494Z,-2.3
2019-02-23T03:32:59.547Z,-2.3
2019-02-23T03:33:59.711Z,-2.3
2019-02-23T03:34:59.632Z,-2.3
2019-02-23T03:35:59.660Z,-2.3
2019-02-23T03:36:59.735Z,-2.3
2019-02-23T03:37:59.812Z,-2.3
2019-02-23T03:38:59.826Z,-2.3
2019-02-23T03:39:59.887Z,-2.3
2019-02-23T03:40:59.911Z,-2.3
2019-02-23T03:41:59.976Z,-2.3
2019-02-23T03:42:59.961Z,-2.3
2019-02-23T03:44:00.007Z,-2.3
2019-02-23T03:45:00.272Z,-2.3
2019-02-23T03:46:00.115Z,-2.4
2019-02-23T03:47:00.141Z,-2.4
2019-02-23T03:48:00.171Z,-2.4
2019-02-23T03:49:00.235Z,-2.4
2019-02-23T03:50:02.542Z,-2.4
2019-02-23T03:51:00.318Z,-2.4
2019-02-23T03:52:00.370Z,-2.4
2019-02-23T03:53:00.417Z,-2.4
2019-02-23T03:54:00.415Z,-2.4
2019-02-23T03:55:00.449Z,-2.5
2019-02-23T03:56:00.507Z,-2.5
2019-02-23T03:57:00.524Z,-2.5
2019-02-23T03:58:00.563Z,-2.5
2019-02-23T03:59:00.589Z,-2.5
2019-02-23T04:00:00.616Z,-2.5
2019-02-23T04:01:00.755Z,-2.5
2019-02-23T04:02:00.674Z,-2.5
2019-02-23T04:03:00.721Z,-2.5
2019-02-23T04:04:00.750Z,-2.5
2019-02-23T04:05:00.775Z,-2.5
2019-02-23T04:06:00.755Z,-2.5
2019-02-23T04:07:00.790Z,-2.5
2019-02-23T04:08:00.824Z,-2.5
2019-02-23T04:09:02.788Z,-2.5
2019-02-23T04:10:00.876Z,-2.5
2019-02-23T04:11:00.922Z,-2.5
2019-02-23T04:12:00.971Z,-2.5
2019-02-23T04:13:01.002Z,-2.6
2019-02-23T04:14:01.045Z,-2.6
2019-02-23T04:15:01.025Z,-2.6
2019-02-23T04:16:01.160Z,-2.7
2019-02-23T04:17:01.074Z,-2.7
2019-02-23T04:18:01.170Z,-2.7
2019-02-23T04:19:01.123Z,-2.7
2019-02-23T04:20:01.162Z,-2.7
2019-02-23T04:21:02.189Z,-2.8
2019-02-23T04:22:01.229Z,-2.8
2019-02-23T04:23:01.227Z,-2.8
2019-02-23T04:24:01.327Z,-2.7
2019-02-23T04:25:01.347Z,-2.7
2019-02-23T04:26:01.328Z,-2.7
2019-02-23T04:27:01.357Z,-2.7
2019-02-23T04:28:01.342Z,-2.7
2019-02-23T04:29:01.353Z,-2.7
2019-02-23T04:30:01.346Z,-2.7
2019-02-23T04:31:01.387Z,-2.7
2019-02-23T04:32:01.386Z,-2.7
2019-02-23T04:33:01.407Z,-2.8
2019-02-23T04:34:01.430Z,-2.8
2019-02-23T04:35:01.429Z,-2.8
2019-02-23T04:36:01.448Z,-2.8
2019-02-23T04:37:01.444Z,-2.8
2019-02-23T04:38:01.512Z,-2.9
2019-02-23T04:39:01.554Z,-2.9
2019-02-23T04:40:01.489Z,-2.9
2019-02-23T04:41:01.493Z,-2.9
2019-02-23T04:42:01.552Z,-2.9
2019-02-23T04:43:01.522Z,-2.9
2019-02-23T04:44:01.527Z,-3
2019-02-23T04:45:01.621Z,-3
2019-02-23T04:46:01.555Z,-3
2019-02-23T04:47:01.548Z,-3
2019-02-23T04:48:01.550Z,-3.1
2019-02-23T04:49:01.586Z,-3.1
2019-02-23T04:50:01.568Z,-3.1
2019-02-23T04:51:13.407Z,-3.1
2019-02-23T04:52:01.669Z,-3.2
2019-02-23T04:53:01.753Z,-3.2
2019-02-23T04:54:01.761Z,-3.2
2019-02-23T04:55:01.817Z,-3.2
2019-02-23T04:56:01.848Z,-3.2
2019-02-23T04:57:01.924Z,-3.2
2019-02-23T04:58:01.954Z,-3.3
2019-02-23T04:59:02.016Z,-3.3
2019-02-23T05:00:02.081Z,-3.3
2019-02-23T05:01:02.117Z,-3.3
2019-02-23T05:02:02.167Z,-3.3
2019-02-23T05:03:02.233Z,-3.4
2019-02-23T05:04:02.341Z,-3.4
2019-02-23T05:05:02.417Z,-3.4
2019-02-23T05:06:02.360Z,-3.4
2019-02-23T05:07:02.425Z,-3.4
2019-02-23T05:08:02.715Z,-3.4
2019-02-23T05:09:02.507Z,-3.4
2019-02-23T05:10:02.526Z,-3.4
2019-02-23T05:11:02.588Z,-3.4
2019-02-23T05:12:02.579Z,-3.4
2019-02-23T05:13:02.674Z,-3.5
2019-02-23T05:14:02.669Z,-3.5
2019-02-23T05:15:03.761Z,-3.5
2019-02-23T05:16:02.887Z,-3.5
2019-02-23T05:17:02.851Z,-3.5
2019-02-23T05:18:02.884Z,-3.5
2019-02-23T05:19:02.964Z,-3.5
2019-02-23T05:20:02.963Z,-3.5
2019-02-23T05:21:03.018Z,-3.5
2019-02-23T05:22:03.063Z,-3.5
2019-02-23T05:23:03.095Z,-3.5
2019-02-23T05:24:03.129Z,-3.5
2019-02-23T05:25:03.168Z,-3.5
2019-02-23T05:26:03.244Z,-3.5
2019-02-23T05:27:03.258Z,-3.5
2019-02-23T05:28:03.419Z,-3.5
2019-02-23T05:29:03.375Z,-3.5
2019-02-23T05:30:03.460Z,-3.5
2019-02-23T05:31:03.500Z,-3.5
2019-02-23T05:32:03.541Z,-3.5
2019-02-23T05:33:03.592Z,-3.5
2019-02-23T05:34:03.637Z,-3.5
2019-02-23T05:35:03.696Z,-3.5
2019-02-23T05:36:03.757Z,-3.5
2019-02-23T05:37:03.798Z,-3.5
2019-02-23T05:38:03.854Z,-3.4
2019-02-23T05:39:03.886Z,-3.4
2019-02-23T05:40:03.912Z,-3.4
2019-02-23T05:41:03.966Z,-3.4
2019-02-23T05:42:03.985Z,-3.4
2019-02-23T05:43:04.090Z,-3.4
2019-02-23T05:44:04.124Z,-3.4
2019-02-23T05:45:04.177Z,-3.4
2019-02-23T05:46:04.200Z,-3.4
2019-02-23T05:47:04.183Z,-3.4
2019-02-23T05:48:04.216Z,-3.4
2019-02-23T05:49:04.285Z,-3.4
2019-02-23T05:50:04.408Z,-3.4
2019-02-23T05:51:04.368Z,-3.4
2019-02-23T05:52:04.437Z,-3.4
2019-02-23T05:53:04.454Z,-3.4
2019-02-23T05:54:04.523Z,-3.4
2019-02-23T05:55:04.569Z,-3.4
2019-02-23T05:56:04.597Z,-3.4
2019-02-23T05:57:04.717Z,-3.4
2019-02-23T05:58:04.689Z,-3.5
2019-02-23T05:59:04.711Z,-3.5
2019-02-23T06:00:04.743Z,-3.4
2019-02-23T06:01:04.790Z,-3.5
2019-02-23T06:02:04.809Z,-3.5
2019-02-23T06:03:04.865Z,-3.5
2019-02-23T06:04:04.889Z,-3.5
2019-02-23T06:05:04.914Z,-3.5
2019-02-23T06:06:04.924Z,-3.6
2019-02-23T06:07:04.931Z,-3.6
2019-02-23T06:08:04.989Z,-3.6
2019-02-23T06:09:05.021Z,-3.6
2019-02-23T06:10:05.037Z,-3.6
2019-02-23T06:11:05.054Z,-3.6
2019-02-23T06:12:05.086Z,-3.6
2019-02-23T06:13:05.105Z,-3.6
2019-02-23T06:14:05.141Z,-3.6
2019-02-23T06:15:05.164Z,-3.6
2019-02-23T06:16:05.219Z,-3.6
2019-02-23T06:17:05.232Z,-3.6
2019-02-23T06:18:05.241Z,-3.6
2019-02-23T06:19:05.234Z,-3.6
2019-02-23T06:20:05.262Z,-3.6
2019-02-23T06:21:05.436Z,-3.7
2019-02-23T06:22:05.303Z,-3.7
2019-02-23T06:23:05.350Z,-3.7
2019-02-23T06:24:05.315Z,-3.7
2019-02-23T06:25:05.333Z,-3.7
2019-02-23T06:26:05.371Z,-3.6
2019-02-23T06:27:05.384Z,-3.6
2019-02-23T06:28:05.405Z,-3.6
2019-02-23T06:29:05.378Z,-3.6
2019-02-23T06:30:05.396Z,-3.6
2019-02-23T06:31:05.447Z,-3.6
2019-02-23T06:32:05.441Z,-3.6
2019-02-23T06:33:05.429Z,-3.6
2019-02-23T06:34:15.384Z,-3.6
2019-02-23T06:35:05.456Z,-3.6
2019-02-23T06:36:05.664Z,-3.5
2019-02-23T06:37:05.465Z,-3.5
2019-02-23T06:38:05.451Z,-3.5
2019-02-23T06:39:06.010Z,-3.5
2019-02-23T06:40:05.614Z,-3.5
2019-02-23T06:41:05.878Z,-3.5
2019-02-23T06:42:05.742Z,-3.4
2019-02-23T06:43:05.787Z,-3.4
2019-02-23T06:44:05.829Z,-3.4
2019-02-23T06:45:06.007Z,-3.3
2019-02-23T06:46:05.981Z,-3.3
2019-02-23T06:47:06.023Z,-3.3
2019-02-23T06:48:06.079Z,-3.3
2019-02-23T06:49:06.162Z,-3.2
2019-02-23T06:50:06.180Z,-3.2
2019-02-23T06:51:06.263Z,-3.2
2019-02-23T06:52:06.284Z,-3.1
2019-02-23T06:53:06.307Z,-3.1
2019-02-23T06:54:06.343Z,-3.1
2019-02-23T06:55:06.400Z,-3.1
2019-02-23T06:56:06.461Z,-3
2019-02-23T06:57:06.529Z,-3
2019-02-23T06:58:06.588Z,-3
2019-02-23T06:59:06.658Z,-3
2019-02-23T07:00:06.718Z,-2.9
2019-02-23T07:01:06.784Z,-2.9
2019-02-23T07:02:06.837Z,-2.9
2019-02-23T07:03:06.886Z,-2.9
2019-02-23T07:04:08.009Z,-2.8
2019-02-23T07:05:06.990Z,-2.8
2019-02-23T07:06:07.170Z,-2.7
2019-02-23T07:07:07.142Z,-2.7
2019-02-23T07:08:07.147Z,-2.7
2019-02-23T07:09:07.216Z,-2.6
2019-02-23T07:10:07.257Z,-2.6
2019-02-23T07:11:07.374Z,-2.6
2019-02-23T07:12:07.394Z,-2.6
2019-02-23T07:13:07.438Z,-2.5
2019-02-23T07:14:07.467Z,-2.5
2019-02-23T07:15:07.627Z,-2.5
2019-02-23T07:16:07.562Z,-2.4
2019-02-23T07:17:07.611Z,-2.4
2019-02-23T07:18:07.674Z,-2.4
2019-02-23T07:19:07.800Z,-2.3
2019-02-23T07:20:07.741Z,-2.3
2019-02-23T07:21:07.810Z,-2.3
2019-02-23T07:23:07.825Z,-2.2
2019-02-23T07:24:07.900Z,-2.2
2019-02-23T07:25:07.901Z,-2.1
2019-02-23T07:26:07.942Z,-2.1
2019-02-23T07:27:08.002Z,-2
2019-02-23T07:28:08.065Z,-2
2019-02-23T07:29:08.096Z,-1.9
2019-02-23T07:30:08.074Z,-1.9
2019-02-23T07:31:08.141Z,-1.9
2019-02-23T07:32:08.156Z,-1.8
2019-02-23T07:33:10.769Z,-1.8
2019-02-23T07:34:08.283Z,-1.7
2019-02-23T07:35:08.317Z,-1.7
2019-02-23T07:36:08.335Z,-1.6
2019-02-23T07:37:08.411Z,-1.6
2019-02-23T07:38:08.399Z,-1.5
2019-02-23T07:39:08.425Z,-1.5
2019-02-23T07:40:08.465Z,-1.4
2019-02-23T07:41:08.464Z,-1.4
2019-02-23T07:42:08.500Z,-1.4
2019-02-23T07:43:08.577Z,-1.3
2019-02-23T07:44:08.600Z,-1.3
2019-02-23T07:45:08.641Z,-1.3
2019-02-23T07:46:08.657Z,-1.2
2019-02-23T07:47:08.719Z,-1.2
2019-02-23T07:48:08.699Z,-1.2
2019-02-23T07:49:08.760Z,-1.1
2019-02-23T07:50:08.777Z,-1.1
2019-02-23T07:51:08.784Z,-1.1
2019-02-23T07:52:08.810Z,-1.1
2019-02-23T07:53:08.843Z,-1
2019-02-23T07:54:08.865Z,-1
2019-02-23T07:55:08.883Z,-0.9
2019-02-23T07:56:08.903Z,-0.9
2019-02-23T07:57:08.958Z,-0.8
2019-02-23T07:58:08.963Z,-0.7
2019-02-23T07:59:08.994Z,-0.7
2019-02-23T08:00:09.012Z,-0.6
2019-02-23T08:01:09.033Z,-0.6
2019-02-23T08:02:09.094Z,-0.5
2019-02-23T08:03:09.139Z,-0.4
2019-02-23T08:04:09.173Z,-0.3
2019-02-23T08:05:09.140Z,-0.3
2019-02-23T08:06:09.152Z,-0.2
2019-02-23T08:07:09.189Z,-0.2
2019-02-23T08:08:09.228Z,-0.1
2019-02-23T08:09:09.349Z,0
2019-02-23T08:10:09.244Z,0
2019-02-23T08:11:09.245Z,0
2019-02-23T08:12:09.273Z,0.1
2019-02-23T08:13:09.288Z,0.1
2019-02-23T08:14:09.322Z,0.2
2019-02-23T08:15:09.307Z,0.2
2019-02-23T08:16:09.316Z,0.2
2019-02-23T08:17:09.298Z,0.3
2019-02-23T08:18:09.345Z,0.3
2019-02-23T08:19:09.329Z,0.3
2019-02-23T08:20:09.335Z,0.4
2019-02-23T08:21:09.400Z,0.4
2019-02-23T08:22:09.349Z,0.4
2019-02-23T08:23:09.385Z,0.4
2019-02-23T08:24:09.373Z,0.5
2019-02-23T08:25:09.415Z,0.5
2019-02-23T08:26:09.395Z,0.5
2019-02-23T08:27:09.752Z,0.5
2019-02-23T08:28:09.540Z,0.6
2019-02-23T08:29:09.565Z,0.6
2019-02-23T08:30:09.592Z,0.7
2019-02-23T08:31:09.668Z,0.7
2019-02-23T08:32:09.695Z,0.8
2019-02-23T08:33:09.738Z,0.8
2019-02-23T08:34:09.778Z,0.9
2019-02-23T08:35:09.799Z,0.9
2019-02-23T08:36:09.864Z,1
2019-02-23T08:37:09.903Z,1.1
2019-02-23T08:38:09.998Z,1.1
2019-02-23T08:39:10.034Z,1.2
2019-02-23T08:40:10.110Z,1.2
2019-02-23T08:41:10.155Z,1.3
2019-02-23T08:42:10.181Z,1.3
2019-02-23T08:43:10.238Z,1.3
2019-02-23T08:44:10.295Z,1.4
2019-02-23T08:45:10.402Z,1.4
2019-02-23T08:46:10.427Z,1.4
2019-02-23T08:47:10.481Z,1.5
2019-02-23T08:48:10.515Z,1.5
2019-02-23T08:49:10.574Z,1.6
2019-02-23T08:50:10.561Z,1.6
2019-02-23T08:51:10.664Z,1.6
2019-02-23T08:52:10.674Z,1.7
2019-02-23T08:53:10.752Z,1.7
2019-02-23T08:54:10.811Z,1.8
2019-02-23T08:55:10.857Z,1.9
2019-02-23T08:56:10.946Z,2
2019-02-23T08:57:10.985Z,2.1
2019-02-23T08:58:10.977Z,2.2
2019-02-23T08:59:11.066Z,2.2
2019-02-23T09:00:11.090Z,2.3
2019-02-23T09:01:11.154Z,2.3
2019-02-23T09:02:11.210Z,2.4
2019-02-23T09:03:11.289Z,2.4
2019-02-23T09:04:11.316Z,2.5
2019-02-23T09:05:11.381Z,2.5
2019-02-23T09:06:11.449Z,2.5
2019-02-23T09:07:11.462Z,2.5
2019-02-23T09:08:11.513Z,2.5
2019-02-23T09:09:11.530Z,2.5
2019-02-23T09:10:11.595Z,2.5
2019-02-23T09:11:11.604Z,2.5
2019-02-23T09:12:11.679Z,2.6
2019-02-23T09:13:11.780Z,2.6
2019-02-23T09:14:11.771Z,2.7
2019-02-23T09:15:11.753Z,2.7
2019-02-23T09:16:11.801Z,2.8
2019-02-23T09:17:11.866Z,2.8
2019-02-23T09:18:11.906Z,2.9
2019-02-23T09:19:11.955Z,3
2019-02-23T09:20:12.054Z,3.1
2019-02-23T09:21:12.065Z,3.2
2019-02-23T09:22:12.120Z,3.2
2019-02-23T09:23:12.116Z,3.2
2019-02-23T09:24:12.121Z,3.2
2019-02-23T09:25:12.201Z,3.3
2019-02-23T09:26:12.279Z,3.3
2019-02-23T09:27:12.275Z,3.4
2019-02-23T09:28:12.324Z,3.4
2019-02-23T09:29:12.348Z,3.5
2019-02-23T09:30:12.436Z,3.6
2019-02-23T09:31:12.446Z,3.6
2019-02-23T09:32:12.447Z,3.6
2019-02-23T09:33:12.471Z,3.7
2019-02-23T09:34:12.542Z,3.7
2019-02-23T09:35:12.592Z,3.8
2019-02-23T09:36:12.559Z,3.8
2019-02-23T09:37:12.618Z,3.9
2019-02-23T09:38:12.648Z,3.9
2019-02-23T09:39:12.662Z,4
2019-02-23T09:40:12.701Z,4.1
2019-02-23T09:41:12.723Z,4.1
2019-02-23T09:42:12.762Z,4.1
2019-02-23T09:43:12.778Z,4.2
2019-02-23T09:44:12.790Z,4.2
2019-02-23T09:45:12.827Z,4.3
2019-02-23T09:46:12.878Z,4.3
2019-02-23T09:47:12.886Z,4.3
2019-02-23T09:48:12.885Z,4.3
2019-02-23T09:49:12.933Z,4.3
2019-02-23T09:50:12.922Z,4.3
2019-02-23T09:51:12.972Z,4.3
2019-02-23T09:52:13.494Z,4.3
2019-02-23T09:53:13.005Z,4.3
2019-02-23T09:54:13.039Z,4.3
2019-02-23T09:55:13.054Z,4.3
2019-02-23T09:56:13.064Z,4.3
2019-02-23T09:57:13.185Z,4.4
2019-02-23T09:58:13.128Z,4.4
2019-02-23T09:59:13.140Z,4.5
2019-02-23T10:00:13.148Z,4.5
2019-02-23T10:01:13.173Z,4.6
2019-02-23T10:02:13.188Z,4.6
2019-02-23T10:03:13.234Z,4.6
2019-02-23T10:04:13.217Z,4.6
2019-02-23T10:05:13.237Z,4.7
2019-02-23T10:06:13.254Z,4.7
2019-02-23T10:07:13.221Z,4.8
2019-02-23T10:08:13.229Z,4.9
2019-02-23T10:09:13.282Z,5
2019-02-23T10:10:14.284Z,5
2019-02-23T10:11:13.322Z,5.1
2019-02-23T10:12:13.278Z,5.2
2019-02-23T10:13:13.272Z,5.3
2019-02-23T10:14:13.302Z,5.3
2019-02-23T10:15:13.348Z,5.4
2019-02-23T10:16:13.455Z,5.4
2019-02-23T10:17:13.428Z,5.5
2019-02-23T10:18:13.580Z,5.6
2019-02-23T10:19:13.594Z,5.7
2019-02-23T10:20:13.589Z,5.7
2019-02-23T10:21:13.837Z,5.7
2019-02-23T10:22:13.785Z,5.7
2019-02-23T10:23:21.430Z,5.7
2019-02-23T10:24:14.894Z,5.7
2019-02-23T10:25:13.942Z,5.6
2019-02-23T10:26:13.987Z,5.6
2019-02-23T10:27:14.070Z,5.6
2019-02-23T10:28:14.111Z,5.6
2019-02-23T10:29:14.190Z,5.6
2019-02-23T10:30:14.271Z,5.5
2019-02-23T10:31:14.298Z,5.5
2019-02-23T10:32:14.399Z,5.4
2019-02-23T10:33:14.457Z,5.4
2019-02-23T10:34:14.503Z,5.3
2019-02-23T10:35:14.516Z,5.3
2019-02-23T10:36:14.576Z,5.3
2019-02-23T10:37:14.630Z,5.3
2019-02-23T10:38:14.645Z,5.3
2019-02-23T10:39:14.681Z,5.2
2019-02-23T10:40:14.670Z,5.2
2019-02-23T10:41:14.770Z,5.3
2019-02-23T10:42:14.782Z,5.3
2019-02-23T10:43:14.813Z,5.3
2019-02-23T10:44:14.825Z,5.2
2019-02-23T10:45:14.873Z,5.2
2019-02-23T10:46:14.837Z,5.2
2019-02-23T10:47:14.886Z,5.2
2019-02-23T10:48:14.964Z,5.2
2019-02-23T10:49:14.965Z,5.3
2019-02-23T10:50:15.027Z,5.4
2019-02-23T10:51:15.075Z,5.4
2019-02-23T10:52:15.112Z,5.5
2019-02-23T10:53:15.182Z,5.5
2019-02-23T10:54:15.182Z,5.6
2019-02-23T10:55:15.198Z,5.6
2019-02-23T10:56:15.243Z,5.6
2019-02-23T10:57:15.276Z,5.6
2019-02-23T10:58:15.354Z,5.6
2019-02-23T10:59:15.342Z,5.6
2019-02-23T11:00:15.392Z,5.7
2019-02-23T11:01:17.650Z,5.7
2019-02-23T11:02:15.465Z,5.7
2019-02-23T11:03:15.552Z,5.7
2019-02-23T11:04:15.596Z,5.7
2019-02-23T11:05:15.584Z,5.8
2019-02-23T11:06:15.634Z,5.8
2019-02-23T11:07:15.680Z,5.8
2019-02-23T11:08:15.693Z,5.8
2019-02-23T11:09:15.732Z,5.9
2019-02-23T11:10:15.773Z,5.9
2019-02-23T11:11:15.824Z,5.9
2019-02-23T11:12:16.149Z,5.9
2019-02-23T11:13:15.878Z,5.9
2019-02-23T11:14:15.929Z,5.9
2019-02-23T11:15:15.980Z,5.9
2019-02-23T11:16:15.996Z,5.8
2019-02-23T11:17:16.004Z,5.8
2019-02-23T11:18:16.070Z,5.8
2019-02-23T11:19:16.092Z,5.8
2019-02-23T11:20:16.116Z,5.7
2019-02-23T11:21:16.134Z,5.7
2019-02-23T11:22:16.170Z,5.7
2019-02-23T11:23:16.233Z,5.7
2019-02-23T11:24:18.304Z,5.7
2019-02-23T11:25:16.283Z,5.7
2019-02-23T11:26:16.432Z,5.7
2019-02-23T11:27:16.335Z,5.7
2019-02-23T11:28:16.446Z,5.7
2019-02-23T11:29:16.409Z,5.7
2019-02-23T11:30:16.441Z,5.7
2019-02-23T11:31:16.592Z,5.7
2019-02-23T11:32:16.521Z,5.7
2019-02-23T11:33:16.643Z,5.7
2019-02-23T11:34:16.523Z,5.7
2019-02-23T11:35:17.546Z,5.7
2019-02-23T11:36:16.539Z,5.7
2019-02-23T11:37:16.587Z,5.7
2019-02-23T11:38:16.570Z,5.7
2019-02-23T11:39:16.595Z,5.6
2019-02-23T11:40:16.685Z,5.6
2019-02-23T11:41:16.649Z,5.7
2019-02-23T11:42:16.687Z,5.7
2019-02-23T11:43:16.681Z,5.7
2019-02-23T11:44:16.729Z,5.7
2019-02-23T11:45:16.728Z,5.7
2019-02-23T11:46:16.746Z,5.7
2019-02-23T11:47:16.744Z,5.8
2019-02-23T11:48:16.780Z,5.8
2019-02-23T11:49:16.772Z,5.8
2019-02-23T11:50:16.780Z,5.9
2019-02-23T11:51:16.826Z,5.9
2019-02-23T11:52:16.792Z,5.9
2019-02-23T11:53:16.897Z,6
2019-02-23T11:54:16.847Z,6
2019-02-23T11:55:16.852Z,6
2019-02-23T11:56:16.845Z,6.1
2019-02-23T11:57:17.079Z,6.1
2019-02-23T11:58:16.906Z,6.2
2019-02-23T11:59:16.902Z,6.2
2019-02-23T12:00:16.932Z,6.3
2019-02-23T12:01:16.888Z,6.3
2019-02-23T12:02:16.861Z,6.3
2019-02-23T12:03:16.929Z,6.3
2019-02-23T12:04:17.058Z,6.4
2019-02-23T12:05:17.086Z,6.4
2019-02-23T12:06:17.157Z,6.5
2019-02-23T12:07:17.206Z,6.5
2019-02-23T12:08:17.278Z,6.5
2019-02-23T12:09:17.287Z,6.5
2019-02-23T12:10:17.319Z,6.6
2019-02-23T12:11:17.349Z,6.7
2019-02-23T12:12:17.426Z,6.8
2019-02-23T12:13:17.412Z,6.8
2019-02-23T12:14:17.474Z,6.8
2019-02-23T12:15:17.555Z,6.9
2019-02-23T12:16:17.555Z,6.9
2019-02-23T12:17:17.660Z,6.9
2019-02-23T12:18:17.676Z,6.9
2019-02-23T12:19:17.739Z,6.9
2019-02-23T12:20:17.777Z,6.9
2019-02-23T12:21:17.828Z,6.9
2019-02-23T12:22:17.869Z,6.9
2019-02-23T12:23:17.892Z,6.9
2019-02-23T12:24:17.899Z,6.9
2019-02-23T12:25:17.976Z,6.9
2019-02-23T12:26:18.000Z,6.9
2019-02-23T12:27:18.035Z,6.8
2019-02-23T12:28:18.114Z,6.9
2019-02-23T12:29:18.114Z,6.9
2019-02-23T12:30:18.186Z,6.9
2019-02-23T12:31:18.183Z,6.9
2019-02-23T12:32:18.203Z,6.9
2019-02-23T12:33:18.290Z,6.9
2019-02-23T12:34:18.321Z,6.9
2019-02-23T12:35:18.309Z,6.9
2019-02-23T12:36:18.372Z,6.9
2019-02-23T12:37:18.392Z,6.9
2019-02-23T12:38:18.439Z,7
2019-02-23T12:39:18.473Z,7
2019-02-23T12:40:18.483Z,7
2019-02-23T12:41:18.504Z,7
2019-02-23T12:42:18.568Z,7
2019-02-23T12:43:18.605Z,7.1
2019-02-23T12:44:18.665Z,7.1
2019-02-23T12:45:18.700Z,7.1
2019-02-23T12:46:18.753Z,7.1
2019-02-23T12:47:18.807Z,7.1
2019-02-23T12:48:18.933Z,7.1
2019-02-23T12:49:18.813Z,7.2
2019-02-23T12:50:18.889Z,7.2
2019-02-23T12:51:18.890Z,7.3
2019-02-23T12:52:18.874Z,7.3
2019-02-23T12:53:18.919Z,7.3
2019-02-23T12:54:18.922Z,7.3
2019-02-23T12:55:18.992Z,7.2
2019-02-23T12:56:19.047Z,7.2
2019-02-23T12:57:19.089Z,7.2
2019-02-23T12:58:19.065Z,7.1
2019-02-23T12:59:19.109Z,7.2
2019-02-23T13:00:19.157Z,7.1
2019-02-23T13:01:19.172Z,7.2
2019-02-23T13:02:19.216Z,7.2
2019-02-23T13:03:19.282Z,7.2
2019-02-23T13:04:19.753Z,7.2
2019-02-23T13:05:19.317Z,7.2
2019-02-23T13:06:35.244Z,7.2
2019-02-23T13:07:19.343Z,7.2
2019-02-23T13:08:19.387Z,7.3
2019-02-23T13:09:19.408Z,7.3
2019-02-23T13:10:19.468Z,7.3
2019-02-23T13:11:19.472Z,7.3
2019-02-23T13:12:19.494Z,7.3
2019-02-23T13:13:19.507Z,7.3
2019-02-23T13:14:19.542Z,7.3
2019-02-23T13:15:19.550Z,7.2
2019-02-23T13:16:19.574Z,7.2
2019-02-23T13:17:19.596Z,7.2
2019-02-23T13:18:19.649Z,7.2
2019-02-23T13:19:19.601Z,7.3
2019-02-23T13:20:19.671Z,7.3
2019-02-23T13:21:19.657Z,7.3
2019-02-23T13:22:19.690Z,7.3
2019-02-23T13:23:19.739Z,7.2
2019-02-23T13:24:27.661Z,7.2
2019-02-23T13:25:19.711Z,7.2
2019-02-23T13:26:19.750Z,7.2
2019-02-23T13:27:19.760Z,7.2
2019-02-23T13:28:19.742Z,7.2
2019-02-23T13:29:19.763Z,7.1
2019-02-23T13:30:19.760Z,7.1
2019-02-23T13:31:19.790Z,7.1
2019-02-23T13:32:19.823Z,7.1
2019-02-23T13:33:19.808Z,7.1
2019-02-23T13:34:19.848Z,7.1
2019-02-23T13:35:19.956Z,7.1
2019-02-23T13:36:19.815Z,7.2